sensor_id;sensor_type;location;lat;lon;timestamp;pressure;altitude;pressure_sealevel;temperature;humidity
51617;BME280;37697;52.588;13.394;2023-03-23T00:01:58;100091.45;;;11.73;63.62
51617;BME280;37697;52.588;13.394;2023-03-23T00:07:02;100083.96;;;11.67;63.80
51617;BME280;37697;52.588;13.394;2023-03-23T00:12:07;100072.81;;;11.61;63.88
51617;BME280;37697;52.588;13.394;2023-03-23T00:17:11;100068.54;;;11.55;64.05
51617;BME280;37697;52.588;13.394;2023-03-23T00:22:18;100074.70;;;11.50;64.28
51617;BME280;37697;52.588;13.394;2023-03-23T00:27:25;100068.67;;;11.46;64.29
51617;BME280;37697;52.588;13.394;2023-03-23T00:32:29;100061.24;;;11.44;64.30
51617;BME280;37697;52.588;13.394;2023-03-23T00:37:34;100052.23;;;11.39;64.46
51617;BME280;37697;52.588;13.394;2023-03-23T00:42:39;100054.02;;;11.35;64.53
51617;BME280;37697;52.588;13.394;2023-03-23T00:47:44;100041.63;;;11.29;64.78
51617;BME280;37697;52.588;13.394;2023-03-23T00:52:50;100031.52;;;11.24;64.82
51617;BME280;37697;52.588;13.394;2023-03-23T00:57:57;100030.61;;;11.17;64.88
51617;BME280;37697;52.588;13.394;2023-03-23T01:03:01;100018.59;;;11.10;65.05
51617;BME280;37697;52.588;13.394;2023-03-23T01:08:07;100010.94;;;11.05;65.16
51617;BME280;37697;52.588;13.394;2023-03-23T01:13:11;100016.96;;;10.99;65.41
51617;BME280;37697;52.588;13.394;2023-03-23T01:18:16;100012.13;;;10.93;65.43
51617;BME280;37697;52.588;13.394;2023-03-23T01:23:21;100013.33;;;10.88;65.68
51617;BME280;37697;52.588;13.394;2023-03-23T01:28:25;100000.04;;;10.84;65.71
51617;BME280;37697;52.588;13.394;2023-03-23T01:33:30;99994.92;;;10.80;65.82
51617;BME280;37697;52.588;13.394;2023-03-23T01:38:35;99992.76;;;10.76;65.95
51617;BME280;37697;52.588;13.394;2023-03-23T01:43:57;99991.11;;;10.73;66.08
51617;BME280;37697;52.588;13.394;2023-03-23T01:49:06;99994.48;;;10.71;66.28
51617;BME280;37697;52.588;13.394;2023-03-23T01:54:15;99989.75;;;10.71;66.25
51617;BME280;37697;52.588;13.394;2023-03-23T01:59:26;99978.22;;;10.71;66.41
51617;BME280;37697;52.588;13.394;2023-03-23T02:04:33;99970.19;;;10.73;66.50
51617;BME280;37697;52.588;13.394;2023-03-23T02:09:38;99962.58;;;10.76;66.56
51617;BME280;37697;52.588;13.394;2023-03-23T02:14:42;99963.94;;;10.82;66.59
51617;BME280;37697;52.588;13.394;2023-03-23T02:20:05;99972.08;;;10.85;66.48
51617;BME280;37697;52.588;13.394;2023-03-23T02:25:28;99960.17;;;10.88;66.49
51617;BME280;37697;52.588;13.394;2023-03-23T02:30:52;99960.38;;;10.92;66.47
51617;BME280;37697;52.588;13.394;2023-03-23T02:36:07;99944.33;;;10.96;66.38
51617;BME280;37697;52.588;13.394;2023-03-23T02:41:15;99954.34;;;11.02;66.41
51617;BME280;37697;52.588;13.394;2023-03-23T02:46:21;99962.09;;;11.06;66.24
51617;BME280;37697;52.588;13.394;2023-03-23T02:51:27;99968.15;;;11.11;66.34
51617;BME280;37697;52.588;13.394;2023-03-23T02:56:33;99961.85;;;11.13;66.59
51617;BME280;37697;52.588;13.394;2023-03-23T03:02:02;99951.04;;;11.07;66.97
51617;BME280;37697;52.588;13.394;2023-03-23T03:07:34;99950.16;;;10.98;67.55
51617;BME280;37697;52.588;13.394;2023-03-23T03:12:45;99941.86;;;10.92;67.62
51617;BME280;37697;52.588;13.394;2023-03-23T03:17:55;99946.63;;;10.91;67.87
51617;BME280;37697;52.588;13.394;2023-03-23T03:23:02;99941.35;;;10.91;67.96
51617;BME280;37697;52.588;13.394;2023-03-23T03:28:07;99947.34;;;10.91;68.08
51617;BME280;37697;52.588;13.394;2023-03-23T03:33:13;99950.23;;;10.91;68.11
51617;BME280;37697;52.588;13.394;2023-03-23T03:38:18;99953.46;;;10.89;68.19
51617;BME280;37697;52.588;13.394;2023-03-23T03:43:22;99953.24;;;10.86;68.48
51617;BME280;37697;52.588;13.394;2023-03-23T03:48:27;99952.89;;;10.80;69.17
51617;BME280;37697;52.588;13.394;2023-03-23T03:53:31;99956.24;;;10.64;69.72
51617;BME280;37697;52.588;13.394;2023-03-23T03:58:35;99952.45;;;10.51;70.24
51617;BME280;37697;52.588;13.394;2023-03-23T04:03:40;99947.38;;;10.42;70.58
51617;BME280;37697;52.588;13.394;2023-03-23T04:08:45;99953.53;;;10.37;70.81
51617;BME280;37697;52.588;13.394;2023-03-23T04:13:50;99945.31;;;10.32;71.19
51617;BME280;37697;52.588;13.394;2023-03-23T04:18:54;99933.36;;;10.32;71.36
51617;BME280;37697;52.588;13.394;2023-03-23T04:24:00;99948.31;;;10.31;71.65
51617;BME280;37697;52.588;13.394;2023-03-23T04:29:05;99943.86;;;10.26;71.92
51617;BME280;37697;52.588;13.394;2023-03-23T04:34:10;99924.15;;;10.24;72.23
51617;BME280;37697;52.588;13.394;2023-03-23T04:39:17;99933.88;;;10.23;72.81
51617;BME280;37697;52.588;13.394;2023-03-23T04:44:21;99932.64;;;10.19;73.16
51617;BME280;37697;52.588;13.394;2023-03-23T04:49:26;99947.97;;;10.13;73.75
51617;BME280;37697;52.588;13.394;2023-03-23T04:54:30;99958.98;;;10.05;73.72
51617;BME280;37697;52.588;13.394;2023-03-23T04:59:35;99961.02;;;10.07;74.04
51617;BME280;37697;52.588;13.394;2023-03-23T05:04:40;99967.63;;;10.07;74.40
51617;BME280;37697;52.588;13.394;2023-03-23T05:09:52;99977.55;;;10.01;74.79
51617;BME280;37697;52.588;13.394;2023-03-23T05:14:56;99971.63;;;9.96;74.99
51617;BME280;37697;52.588;13.394;2023-03-23T05:20:02;99964.88;;;9.91;75.49
51617;BME280;37697;52.588;13.394;2023-03-23T05:25:09;99956.55;;;9.88;75.82
51617;BME280;37697;52.588;13.394;2023-03-23T05:30:15;99954.80;;;9.86;76.07
51617;BME280;37697;52.588;13.394;2023-03-23T05:35:22;99948.41;;;9.84;76.34
51617;BME280;37697;52.588;13.394;2023-03-23T05:40:27;99958.59;;;9.80;76.74
51617;BME280;37697;52.588;13.394;2023-03-23T05:45:32;99967.23;;;9.75;76.89
51617;BME280;37697;52.588;13.394;2023-03-23T05:50:36;99973.18;;;9.68;77.30
51617;BME280;37697;52.588;13.394;2023-03-23T05:55:40;99973.06;;;9.63;77.88
51617;BME280;37697;52.588;13.394;2023-03-23T06:00:45;99970.29;;;9.58;78.56
51617;BME280;37697;52.588;13.394;2023-03-23T06:05:51;99973.63;;;9.54;79.21
51617;BME280;37697;52.588;13.394;2023-03-23T06:10:56;99977.85;;;9.52;79.80
51617;BME280;37697;52.588;13.394;2023-03-23T06:16:01;99978.12;;;9.48;80.54
51617;BME280;37697;52.588;13.394;2023-03-23T06:21:07;99985.67;;;9.45;80.63
51617;BME280;37697;52.588;13.394;2023-03-23T06:26:14;99983.63;;;9.43;81.35
51617;BME280;37697;52.588;13.394;2023-03-23T06:31:20;99990.77;;;9.42;82.30
51617;BME280;37697;52.588;13.394;2023-03-23T06:36:25;99996.06;;;9.38;82.51
51617;BME280;37697;52.588;13.394;2023-03-23T06:41:31;99995.63;;;9.39;83.07
51617;BME280;37697;52.588;13.394;2023-03-23T06:46:36;99998.52;;;9.43;83.57
51617;BME280;37697;52.588;13.394;2023-03-23T06:51:40;99992.05;;;9.45;84.16
51617;BME280;37697;52.588;13.394;2023-03-23T06:56:45;99993.86;;;9.47;84.25
51617;BME280;37697;52.588;13.394;2023-03-23T07:01:49;100000.41;;;9.49;84.71
51617;BME280;37697;52.588;13.394;2023-03-23T07:06:53;100000.13;;;9.51;84.89
51617;BME280;37697;52.588;13.394;2023-03-23T07:11:58;99989.71;;;9.55;85.12
51617;BME280;37697;52.588;13.394;2023-03-23T07:17:03;99986.16;;;9.56;85.64
51617;BME280;37697;52.588;13.394;2023-03-23T07:22:08;99972.63;;;9.59;85.82
51617;BME280;37697;52.588;13.394;2023-03-23T07:27:13;99995.12;;;9.62;86.26
51617;BME280;37697;52.588;13.394;2023-03-23T07:32:17;99985.14;;;9.66;86.35
51617;BME280;37697;52.588;13.394;2023-03-23T07:37:22;99994.70;;;9.68;86.00
51617;BME280;37697;52.588;13.394;2023-03-23T07:42:27;99978.61;;;9.72;86.51
51617;BME280;37697;52.588;13.394;2023-03-23T07:47:31;99974.40;;;9.77;87.16
51617;BME280;37697;52.588;13.394;2023-03-23T07:52:36;99937.61;;;9.84;87.11
51617;BME280;37697;52.588;13.394;2023-03-23T07:57:41;99932.11;;;9.95;87.16
51617;BME280;37697;52.588;13.394;2023-03-23T08:02:46;99948.81;;;10.07;87.06
51617;BME280;37697;52.588;13.394;2023-03-23T08:07:51;99967.17;;;10.17;87.14
51617;BME280;37697;52.588;13.394;2023-03-23T08:12:56;99977.68;;;10.23;86.94
51617;BME280;37697;52.588;13.394;2023-03-23T08:18:01;99989.70;;;10.28;86.98
51617;BME280;37697;52.588;13.394;2023-03-23T08:23:05;99993.59;;;10.33;87.21
51617;BME280;37697;52.588;13.394;2023-03-23T08:28:10;99999.80;;;10.38;87.03
51617;BME280;37697;52.588;13.394;2023-03-23T08:33:15;99987.95;;;10.42;86.95
51617;BME280;37697;52.588;13.394;2023-03-23T08:38:19;99981.83;;;10.40;87.11
51617;BME280;37697;52.588;13.394;2023-03-23T08:43:25;99999.48;;;10.43;87.15
51617;BME280;37697;52.588;13.394;2023-03-23T08:48:30;100000.21;;;10.50;87.20
51617;BME280;37697;52.588;13.394;2023-03-23T08:53:34;99995.63;;;10.61;87.01
51617;BME280;37697;52.588;13.394;2023-03-23T08:58:41;99993.74;;;10.73;86.75
51617;BME280;37697;52.588;13.394;2023-03-23T09:03:46;99999.59;;;10.80;86.49
51617;BME280;37697;52.588;13.394;2023-03-23T09:08:51;100016.70;;;10.90;86.18
51617;BME280;37697;52.588;13.394;2023-03-23T09:13:55;100016.93;;;10.96;86.00
51617;BME280;37697;52.588;13.394;2023-03-23T09:19:00;100024.87;;;11.02;85.93
51617;BME280;37697;52.588;13.394;2023-03-23T09:24:06;100015.80;;;11.08;85.71
51617;BME280;37697;52.588;13.394;2023-03-23T09:29:10;100010.09;;;11.19;85.54
51617;BME280;37697;52.588;13.394;2023-03-23T09:34:15;99999.73;;;11.36;85.62
51617;BME280;37697;52.588;13.394;2023-03-23T09:39:20;100004.95;;;11.66;85.45
51617;BME280;37697;52.588;13.394;2023-03-23T09:44:33;100006.17;;;11.89;84.72
51617;BME280;37697;52.588;13.394;2023-03-23T09:49:42;100014.17;;;12.08;84.13
51617;BME280;37697;52.588;13.394;2023-03-23T09:54:49;100010.73;;;12.27;83.88
51617;BME280;37697;52.588;13.394;2023-03-23T09:59:59;100010.88;;;12.50;83.31
51617;BME280;37697;52.588;13.394;2023-03-23T10:05:25;100015.44;;;12.70;82.62
51617;BME280;37697;52.588;13.394;2023-03-23T10:10:39;100020.52;;;12.85;81.99
51617;BME280;37697;52.588;13.394;2023-03-23T10:15:47;100021.39;;;12.83;80.41
51617;BME280;37697;52.588;13.394;2023-03-23T10:20:56;100015.06;;;12.81;80.10
51617;BME280;37697;52.588;13.394;2023-03-23T10:26:06;100009.61;;;12.85;79.84
51617;BME280;37697;52.588;13.394;2023-03-23T10:31:15;100004.80;;;12.92;79.45
51617;BME280;37697;52.588;13.394;2023-03-23T10:36:24;99995.78;;;13.07;79.22
51617;BME280;37697;52.588;13.394;2023-03-23T10:41:30;99989.67;;;13.18;78.30
51617;BME280;37697;52.588;13.394;2023-03-23T10:46:39;99994.84;;;13.25;77.66
51617;BME280;37697;52.588;13.394;2023-03-23T10:51:57;99990.32;;;13.29;77.12
51617;BME280;37697;52.588;13.394;2023-03-23T10:57:17;99991.86;;;13.32;76.74
51617;BME280;37697;52.588;13.394;2023-03-23T11:02:25;99993.59;;;13.34;76.64
51617;BME280;37697;52.588;13.394;2023-03-23T11:07:33;99996.11;;;13.31;75.98
51617;BME280;37697;52.588;13.394;2023-03-23T11:12:38;100000.85;;;13.33;75.82
51617;BME280;37697;52.588;13.394;2023-03-23T11:17:42;100008.30;;;13.34;75.12
51617;BME280;37697;52.588;13.394;2023-03-23T11:22:48;100009.04;;;13.35;75.28
51617;BME280;37697;52.588;13.394;2023-03-23T11:27:53;100014.08;;;13.36;75.01
51617;BME280;37697;52.588;13.394;2023-03-23T11:33:00;100017.91;;;13.49;74.60
51617;BME280;37697;52.588;13.394;2023-03-23T11:38:11;100026.45;;;13.67;74.10
51617;BME280;37697;52.588;13.394;2023-03-23T11:43:22;100028.20;;;13.83;73.66
51617;BME280;37697;52.588;13.394;2023-03-23T11:48:33;100022.48;;;13.90;73.27
51617;BME280;37697;52.588;13.394;2023-03-23T11:53:45;100017.05;;;14.01;73.16
51617;BME280;37697;52.588;13.394;2023-03-23T11:58:51;100020.79;;;14.16;72.45
51617;BME280;37697;52.588;13.394;2023-03-23T12:04:05;100018.52;;;14.17;72.05
51617;BME280;37697;52.588;13.394;2023-03-23T12:09:30;100021.84;;;14.20;71.86
51617;BME280;37697;52.588;13.394;2023-03-23T12:14:47;100025.02;;;14.19;71.22
51617;BME280;37697;52.588;13.394;2023-03-23T12:20:03;100022.12;;;14.14;71.24
51617;BME280;37697;52.588;13.394;2023-03-23T12:25:38;100019.33;;;14.15;71.21
51617;BME280;37697;52.588;13.394;2023-03-23T12:30:51;100022.05;;;14.16;71.18
51617;BME280;37697;52.588;13.394;2023-03-23T12:36:07;100014.23;;;14.19;70.75
51617;BME280;37697;52.588;13.394;2023-03-23T12:41:18;100006.39;;;14.16;70.40
51617;BME280;37697;52.588;13.394;2023-03-23T12:52:00;99994.45;;;14.27;69.66
51617;BME280;37697;52.588;13.394;2023-03-23T12:57:11;99986.03;;;14.35;69.52
51617;BME280;37697;52.588;13.394;2023-03-23T13:02:21;99973.19;;;14.65;69.29
51617;BME280;37697;52.588;13.394;2023-03-23T13:07:32;99989.67;;;14.95;68.72
51617;BME280;37697;52.588;13.394;2023-03-23T13:12:37;100003.24;;;15.11;67.05
51617;BME280;37697;52.588;13.394;2023-03-23T13:17:54;99995.38;;;15.27;66.68
51617;BME280;37697;52.588;13.394;2023-03-23T13:23:04;99992.41;;;15.58;65.65
51617;BME280;37697;52.588;13.394;2023-03-23T13:28:16;99991.78;;;15.67;64.72
51617;BME280;37697;52.588;13.394;2023-03-23T13:33:24;99981.70;;;15.87;64.03
51617;BME280;37697;52.588;13.394;2023-03-23T13:38:30;99964.23;;;16.02;63.63
51617;BME280;37697;52.588;13.394;2023-03-23T13:43:37;99948.77;;;16.12;63.18
51617;BME280;37697;52.588;13.394;2023-03-23T13:48:44;99947.05;;;16.03;62.36
51617;BME280;37697;52.588;13.394;2023-03-23T13:53:50;99938.91;;;16.15;62.42
51617;BME280;37697;52.588;13.394;2023-03-23T13:59:07;99943.95;;;16.33;62.13
51617;BME280;37697;52.588;13.394;2023-03-23T14:04:15;99940.41;;;16.21;60.66
51617;BME280;37697;52.588;13.394;2023-03-23T14:09:27;99950.96;;;16.08;60.66
51617;BME280;37697;52.588;13.394;2023-03-23T14:14:33;99962.70;;;16.01;60.83
51617;BME280;37697;52.588;13.394;2023-03-23T14:19:41;99958.73;;;16.08;60.24
51617;BME280;37697;52.588;13.394;2023-03-23T14:24:46;99959.56;;;15.87;59.74
51617;BME280;37697;52.588;13.394;2023-03-23T14:30:01;99966.42;;;15.64;59.43
51617;BME280;37697;52.588;13.394;2023-03-23T14:35:12;99962.40;;;15.45;59.81
51617;BME280;37697;52.588;13.394;2023-03-23T14:40:18;99963.38;;;15.25;58.96
51617;BME280;37697;52.588;13.394;2023-03-23T14:45:24;99964.33;;;15.08;59.95
51617;BME280;37697;52.588;13.394;2023-03-23T14:50:31;99963.54;;;15.05;60.09
51617;BME280;37697;52.588;13.394;2023-03-23T14:55:43;99955.30;;;15.14;60.75
51617;BME280;37697;52.588;13.394;2023-03-23T15:00:52;99962.46;;;15.44;60.31
51617;BME280;37697;52.588;13.394;2023-03-23T15:06:00;99962.41;;;15.77;58.95
51617;BME280;37697;52.588;13.394;2023-03-23T15:11:11;99952.65;;;15.74;57.95
51617;BME280;37697;52.588;13.394;2023-03-23T15:16:24;99959.56;;;15.80;57.65
51617;BME280;37697;52.588;13.394;2023-03-23T15:21:30;99964.91;;;15.97;57.76
51617;BME280;37697;52.588;13.394;2023-03-23T15:26:43;99956.08;;;16.06;57.16
51617;BME280;37697;52.588;13.394;2023-03-23T15:31:49;99942.45;;;16.04;57.66
51617;BME280;37697;52.588;13.394;2023-03-23T15:36:57;99943.02;;;15.98;57.29
51617;BME280;37697;52.588;13.394;2023-03-23T15:42:05;99940.39;;;15.90;56.76
51617;BME280;37697;52.588;13.394;2023-03-23T15:47:16;99950.84;;;15.75;56.96
51617;BME280;37697;52.588;13.394;2023-03-23T15:52:21;99966.83;;;15.56;57.64
51617;BME280;37697;52.588;13.394;2023-03-23T15:57:25;99975.25;;;15.39;58.27
51617;BME280;37697;52.588;13.394;2023-03-23T16:02:29;99980.51;;;15.26;58.55
51617;BME280;37697;52.588;13.394;2023-03-23T16:07:35;99991.09;;;15.12;58.83
51617;BME280;37697;52.588;13.394;2023-03-23T16:12:40;99990.08;;;15.00;58.64
51617;BME280;37697;52.588;13.394;2023-03-23T16:17:46;100000.52;;;14.89;58.79
51617;BME280;37697;52.588;13.394;2023-03-23T16:22:55;100009.75;;;14.79;59.09
51617;BME280;37697;52.588;13.394;2023-03-23T16:28:04;100032.83;;;14.73;59.53
51617;BME280;37697;52.588;13.394;2023-03-23T16:33:10;100051.09;;;14.65;59.88
51617;BME280;37697;52.588;13.394;2023-03-23T16:38:17;100027.34;;;14.38;60.81
51617;BME280;37697;52.588;13.394;2023-03-23T16:43:22;100030.88;;;14.13;61.87
51617;BME280;37697;52.588;13.394;2023-03-23T16:48:28;100064.28;;;13.79;62.61
51617;BME280;37697;52.588;13.394;2023-03-23T16:53:33;100078.02;;;13.45;63.63
51617;BME280;37697;52.588;13.394;2023-03-23T16:58:40;100094.27;;;13.22;64.51
51617;BME280;37697;52.588;13.394;2023-03-23T17:03:49;100098.91;;;13.07;65.45
51617;BME280;37697;52.588;13.394;2023-03-23T17:08:55;100099.90;;;12.94;65.86
51617;BME280;37697;52.588;13.394;2023-03-23T17:14:00;100111.41;;;12.82;66.51
51617;BME280;37697;52.588;13.394;2023-03-23T17:19:06;100115.00;;;12.73;66.84
51617;BME280;37697;52.588;13.394;2023-03-23T17:24:12;100105.90;;;12.65;67.30
51617;BME280;37697;52.588;13.394;2023-03-23T17:29:18;100111.65;;;12.58;67.60
51617;BME280;37697;52.588;13.394;2023-03-23T17:34:23;100116.58;;;12.55;67.97
51617;BME280;37697;52.588;13.394;2023-03-23T17:39:29;100133.77;;;12.45;68.00
51617;BME280;37697;52.588;13.394;2023-03-23T17:44:46;100148.52;;;12.36;68.64
51617;BME280;37697;52.588;13.394;2023-03-23T17:49:52;100159.86;;;12.22;69.12
51617;BME280;37697;52.588;13.394;2023-03-23T17:54:57;100144.88;;;12.00;69.34
51617;BME280;37697;52.588;13.394;2023-03-23T18:00:03;100142.64;;;11.83;69.80
51617;BME280;37697;52.588;13.394;2023-03-23T18:05:11;100132.52;;;11.71;70.19
51617;BME280;37697;52.588;13.394;2023-03-23T18:10:17;100123.14;;;11.59;70.56
51617;BME280;37697;52.588;13.394;2023-03-23T18:15:22;100120.48;;;11.57;70.94
51617;BME280;37697;52.588;13.394;2023-03-23T18:20:33;100131.52;;;11.52;71.05
51617;BME280;37697;52.588;13.394;2023-03-23T18:25:39;100137.31;;;11.48;71.31
51617;BME280;37697;52.588;13.394;2023-03-23T18:30:44;100157.70;;;11.47;71.64
51617;BME280;37697;52.588;13.394;2023-03-23T18:35:58;100167.16;;;11.46;71.97
51617;BME280;37697;52.588;13.394;2023-03-23T18:41:08;100176.10;;;11.44;72.07
51617;BME280;37697;52.588;13.394;2023-03-23T18:46:13;100181.62;;;11.42;72.38
51617;BME280;37697;52.588;13.394;2023-03-23T18:51:19;100186.06;;;11.37;72.83
51617;BME280;37697;52.588;13.394;2023-03-23T18:56:25;100187.05;;;11.33;73.25
51617;BME280;37697;52.588;13.394;2023-03-23T19:01:31;100175.53;;;11.28;74.04
51617;BME280;37697;52.588;13.394;2023-03-23T19:06:36;100171.16;;;11.14;74.59
51617;BME280;37697;52.588;13.394;2023-03-23T19:11:42;100168.68;;;11.08;75.52
51617;BME280;37697;52.588;13.394;2023-03-23T19:16:48;100174.39;;;11.05;75.86
51617;BME280;37697;52.588;13.394;2023-03-23T19:21:53;100171.80;;;10.97;76.34
51617;BME280;37697;52.588;13.394;2023-03-23T19:26:59;100176.84;;;10.96;76.77
51617;BME280;37697;52.588;13.394;2023-03-23T19:32:06;100173.06;;;10.96;77.19
51617;BME280;37697;52.588;13.394;2023-03-23T19:37:11;100172.78;;;10.93;77.44
51617;BME280;37697;52.588;13.394;2023-03-23T19:42:17;100177.99;;;10.91;77.63
51617;BME280;37697;52.588;13.394;2023-03-23T19:47:24;100176.34;;;10.89;78.01
51617;BME280;37697;52.588;13.394;2023-03-23T19:52:30;100179.67;;;10.90;78.24
51617;BME280;37697;52.588;13.394;2023-03-23T19:57:35;100171.61;;;10.89;78.21
51617;BME280;37697;52.588;13.394;2023-03-23T20:02:42;100173.48;;;10.90;78.53
51617;BME280;37697;52.588;13.394;2023-03-23T20:07:48;100178.35;;;10.91;78.62
51617;BME280;37697;52.588;13.394;2023-03-23T20:12:56;100188.12;;;10.93;78.75
51617;BME280;37697;52.588;13.394;2023-03-23T20:18:01;100184.37;;;10.95;78.81
51617;BME280;37697;52.588;13.394;2023-03-23T20:23:07;100181.50;;;10.97;78.91
51617;BME280;37697;52.588;13.394;2023-03-23T20:28:13;100180.05;;;11.00;79.10
51617;BME280;37697;52.588;13.394;2023-03-23T20:33:18;100177.79;;;10.97;79.40
51617;BME280;37697;52.588;13.394;2023-03-23T20:38:25;100176.52;;;10.96;79.59
51617;BME280;37697;52.588;13.394;2023-03-23T20:43:32;100177.24;;;10.94;79.79
51617;BME280;37697;52.588;13.394;2023-03-23T20:48:38;100177.01;;;10.94;79.96
51617;BME280;37697;52.588;13.394;2023-03-23T20:53:45;100180.66;;;10.93;80.00
51617;BME280;37697;52.588;13.394;2023-03-23T20:58:50;100181.42;;;10.90;80.17
51617;BME280;37697;52.588;13.394;2023-03-23T21:03:56;100194.66;;;10.84;80.57
51617;BME280;37697;52.588;13.394;2023-03-23T21:09:02;100186.05;;;10.80;80.97
51617;BME280;37697;52.588;13.394;2023-03-23T21:14:09;100177.90;;;10.80;81.24
51617;BME280;37697;52.588;13.394;2023-03-23T21:19:14;100173.71;;;10.78;81.44
51617;BME280;37697;52.588;13.394;2023-03-23T21:24:20;100167.10;;;10.77;81.77
51617;BME280;37697;52.588;13.394;2023-03-23T21:29:26;100159.96;;;10.77;82.03
51617;BME280;37697;52.588;13.394;2023-03-23T21:34:33;100143.34;;;10.77;82.38
51617;BME280;37697;52.588;13.394;2023-03-23T21:39:38;100124.73;;;10.74;82.95
51617;BME280;37697;52.588;13.394;2023-03-23T21:44:44;100123.67;;;10.69;82.85
51617;BME280;37697;52.588;13.394;2023-03-23T21:49:49;100126.84;;;10.64;82.84
51617;BME280;37697;52.588;13.394;2023-03-23T21:54:55;100131.37;;;10.60;82.84
51617;BME280;37697;52.588;13.394;2023-03-23T22:00:05;100129.23;;;10.56;82.80
51617;BME280;37697;52.588;13.394;2023-03-23T22:05:12;100129.16;;;10.51;82.88
51617;BME280;37697;52.588;13.394;2023-03-23T22:10:18;100116.10;;;10.42;82.74
51617;BME280;37697;52.588;13.394;2023-03-23T22:15:23;100112.64;;;10.33;83.20
51617;BME280;37697;52.588;13.394;2023-03-23T22:20:32;100110.05;;;10.29;83.26
51617;BME280;37697;52.588;13.394;2023-03-23T22:25:37;100108.63;;;10.24;83.43
51617;BME280;37697;52.588;13.394;2023-03-23T22:30:43;100116.21;;;10.18;83.43
51617;BME280;37697;52.588;13.394;2023-03-23T22:35:49;100107.77;;;10.15;83.44
51617;BME280;37697;52.588;13.394;2023-03-23T22:40:57;100111.52;;;10.11;83.60
51617;BME280;37697;52.588;13.394;2023-03-23T22:46:03;100105.72;;;10.05;83.49
51617;BME280;37697;52.588;13.394;2023-03-23T22:51:10;100093.56;;;10.01;83.48
51617;BME280;37697;52.588;13.394;2023-03-23T22:56:16;100092.56;;;9.95;83.41
51617;BME280;37697;52.588;13.394;2023-03-23T23:01:22;100081.83;;;9.87;83.18
51617;BME280;37697;52.588;13.394;2023-03-23T23:06:28;100077.14;;;9.67;82.91
51617;BME280;37697;52.588;13.394;2023-03-23T23:11:33;100068.84;;;9.59;83.26
51617;BME280;37697;52.588;13.394;2023-03-23T23:16:39;100067.74;;;9.50;83.38
51617;BME280;37697;52.588;13.394;2023-03-23T23:21:45;100065.27;;;9.47;84.19
51617;BME280;37697;52.588;13.394;2023-03-23T23:26:51;100057.67;;;9.48;84.35
51617;BME280;37697;52.588;13.394;2023-03-23T23:31:56;100051.91;;;9.47;84.83
51617;BME280;37697;52.588;13.394;2023-03-23T23:37:05;100047.85;;;9.48;84.93
51617;BME280;37697;52.588;13.394;2023-03-23T23:42:13;100044.50;;;9.50;85.20
51617;BME280;37697;52.588;13.394;2023-03-23T23:47:18;100042.30;;;9.52;84.97
51617;BME280;37697;52.588;13.394;2023-03-23T23:52:24;100034.27;;;9.52;84.89
51617;BME280;37697;52.588;13.394;2023-03-23T23:57:30;100036.77;;;9.53;84.60
